sensor_id;sensor_type;location;lat;lon;timestamp;temperature;humidity
1878;DHT22;939;51.426;6.972;2023-09-30T00:00:40;15.10;99.90
1878;DHT22;939;51.426;6.972;2023-09-30T00:04:04;15.00;99.90
1878;DHT22;939;51.426;6.972;2023-09-30T00:07:09;15.10;99.90
1878;DHT22;939;51.426;6.972;2023-09-30T00:13:18;15.10;99.90
1878;DHT22;939;51.426;6.972;2023-09-30T00:15:52;15.10;99.90
1878;DHT22;939;51.426;6.972;2023-09-30T00:18:32;15.10;99.90
1878;DHT22;939;51.426;6.972;2023-09-30T00:21:08;15.10;99.90
1878;DHT22;939;51.426;6.972;2023-09-30T00:23:49;15.10;99.90
1878;DHT22;939;51.426;6.972;2023-09-30T00:26:32;14.90;99.90
1878;DHT22;939;51.426;6.972;2023-09-30T00:29:13;14.60;99.90
1878;DHT22;939;51.426;6.972;2023-09-30T00:32:08;14.80;99.90
1878;DHT22;939;51.426;6.972;2023-09-30T00:38:05;15.00;99.90
1878;DHT22;939;51.426;6.972;2023-09-30T00:41:05;15.10;99.90
1878;DHT22;939;51.426;6.972;2023-09-30T00:43:48;15.20;99.90
1878;DHT22;939;51.426;6.972;2023-09-30T00:46:35;15.20;99.90
1878;DHT22;939;51.426;6.972;2023-09-30T00:49:23;15.20;99.90
1878;DHT22;939;51.426;6.972;2023-09-30T00:52:31;15.30;99.90
1878;DHT22;939;51.426;6.972;2023-09-30T00:55:29;15.20;99.90
1878;DHT22;939;51.426;6.972;2023-09-30T00:58:22;15.20;99.90
1878;DHT22;939;51.426;6.972;2023-09-30T01:01:02;15.20;99.90
1878;DHT22;939;51.426;6.972;2023-09-30T01:03:57;15.30;99.90
1878;DHT22;939;51.426;6.972;2023-09-30T01:06:54;15.20;99.90
1878;DHT22;939;51.426;6.972;2023-09-30T01:09:27;15.20;99.90
1878;DHT22;939;51.426;6.972;2023-09-30T01:12:08;15.20;99.90
1878;DHT22;939;51.426;6.972;2023-09-30T01:14:45;14.90;99.90
1878;DHT22;939;51.426;6.972;2023-09-30T01:17:21;14.50;99.90
1878;DHT22;939;51.426;6.972;2023-09-30T01:19:54;14.50;99.90
1878;DHT22;939;51.426;6.972;2023-09-30T01:22:57;14.70;99.90
1878;DHT22;939;51.426;6.972;2023-09-30T01:25:33;14.90;99.90
1878;DHT22;939;51.426;6.972;2023-09-30T01:28:24;15.00;99.90
1878;DHT22;939;51.426;6.972;2023-09-30T01:31:13;15.10;99.90
1878;DHT22;939;51.426;6.972;2023-09-30T01:34:24;15.10;99.90
1878;DHT22;939;51.426;6.972;2023-09-30T01:40:46;15.10;99.90
1878;DHT22;939;51.426;6.972;2023-09-30T01:46:33;15.10;99.90
1878;DHT22;939;51.426;6.972;2023-09-30T01:49:15;15.00;99.90
1878;DHT22;939;51.426;6.972;2023-09-30T01:51:47;14.90;99.90
1878;DHT22;939;51.426;6.972;2023-09-30T01:54:18;14.90;99.90
1878;DHT22;939;51.426;6.972;2023-09-30T01:56:50;15.00;99.90
1878;DHT22;939;51.426;6.972;2023-09-30T01:59:39;15.10;99.90
1878;DHT22;939;51.426;6.972;2023-09-30T02:02:31;15.10;99.90
1878;DHT22;939;51.426;6.972;2023-09-30T02:05:07;15.10;99.90
1878;DHT22;939;51.426;6.972;2023-09-30T02:07:43;15.20;99.90
1878;DHT22;939;51.426;6.972;2023-09-30T02:10:19;15.20;99.90
1878;DHT22;939;51.426;6.972;2023-09-30T09:43:31;17.90;99.90
1878;DHT22;939;51.426;6.972;2023-09-30T09:46:00;17.70;99.90
1878;DHT22;939;51.426;6.972;2023-09-30T09:48:29;17.70;99.90
1878;DHT22;939;51.426;6.972;2023-09-30T09:50:56;17.90;99.90
1878;DHT22;939;51.426;6.972;2023-09-30T09:53:24;18.10;99.90
1878;DHT22;939;51.426;6.972;2023-09-30T09:55:52;18.10;99.90
1878;DHT22;939;51.426;6.972;2023-09-30T09:58:20;18.90;99.90
1878;DHT22;939;51.426;6.972;2023-09-30T10:00:49;19.20;99.90
1878;DHT22;939;51.426;6.972;2023-09-30T10:03:17;21.10;99.90
1878;DHT22;939;51.426;6.972;2023-09-30T10:05:44;23.10;99.90
1878;DHT22;939;51.426;6.972;2023-09-30T10:08:15;25.30;97.10
1878;DHT22;939;51.426;6.972;2023-09-30T10:10:46;27.70;92.70
1878;DHT22;939;51.426;6.972;2023-09-30T10:19:15;28.60;56.40
1878;DHT22;939;51.426;6.972;2023-09-30T10:24:43;29.60;52.90
1878;DHT22;939;51.426;6.972;2023-09-30T10:27:28;31.40;50.00
1878;DHT22;939;51.426;6.972;2023-09-30T10:29:57;32.60;45.30
1878;DHT22;939;51.426;6.972;2023-09-30T10:35:45;34.60;26.20
1878;DHT22;939;51.426;6.972;2023-09-30T10:38:40;33.70;25.60
1878;DHT22;939;51.426;6.972;2023-09-30T10:41:08;33.20;26.00
1878;DHT22;939;51.426;6.972;2023-09-30T10:43:37;32.10;27.10
1878;DHT22;939;51.426;6.972;2023-09-30T10:46:10;31.70;24.50
1878;DHT22;939;51.426;6.972;2023-09-30T10:48:55;31.10;25.10
1878;DHT22;939;51.426;6.972;2023-09-30T10:51:24;30.40;26.10
1878;DHT22;939;51.426;6.972;2023-09-30T10:53:52;29.50;27.70
1878;DHT22;939;51.426;6.972;2023-09-30T10:56:22;28.00;28.50
1878;DHT22;939;51.426;6.972;2023-09-30T10:58:50;26.40;32.70
1878;DHT22;939;51.426;6.972;2023-09-30T11:01:20;25.80;36.80
1878;DHT22;939;51.426;6.972;2023-09-30T11:03:48;25.00;38.90
1878;DHT22;939;51.426;6.972;2023-09-30T11:06:18;24.40;41.90
1878;DHT22;939;51.426;6.972;2023-09-30T11:08:51;23.30;46.60
1878;DHT22;939;51.426;6.972;2023-09-30T11:11:19;22.60;51.20
1878;DHT22;939;51.426;6.972;2023-09-30T11:13:46;21.90;57.10
1878;DHT22;939;51.426;6.972;2023-09-30T11:16:13;21.90;66.30
1878;DHT22;939;51.426;6.972;2023-09-30T11:18:40;21.60;68.20
1878;DHT22;939;51.426;6.972;2023-09-30T11:21:09;21.40;67.70
1878;DHT22;939;51.426;6.972;2023-09-30T11:23:39;21.40;67.40
1878;DHT22;939;51.426;6.972;2023-09-30T11:26:08;21.10;71.80
1878;DHT22;939;51.426;6.972;2023-09-30T11:28:38;21.20;71.90
1878;DHT22;939;51.426;6.972;2023-09-30T11:31:08;21.10;73.20
1878;DHT22;939;51.426;6.972;2023-09-30T11:33:47;21.10;73.70
1878;DHT22;939;51.426;6.972;2023-09-30T11:36:15;20.80;77.00
1878;DHT22;939;51.426;6.972;2023-09-30T11:38:45;20.60;79.10
1878;DHT22;939;51.426;6.972;2023-09-30T11:41:14;20.60;83.20
1878;DHT22;939;51.426;6.972;2023-09-30T11:43:58;20.70;83.70
1878;DHT22;939;51.426;6.972;2023-09-30T11:46:27;20.60;89.30
1878;DHT22;939;51.426;6.972;2023-09-30T11:48:58;20.60;90.40
1878;DHT22;939;51.426;6.972;2023-09-30T11:51:28;20.40;90.20
1878;DHT22;939;51.426;6.972;2023-09-30T11:53:57;20.30;88.10
1878;DHT22;939;51.426;6.972;2023-09-30T11:56:25;20.20;90.00
1878;DHT22;939;51.426;6.972;2023-09-30T11:58:55;20.10;92.70
1878;DHT22;939;51.426;6.972;2023-09-30T12:01:24;20.10;96.20
1878;DHT22;939;51.426;6.972;2023-09-30T12:03:52;20.20;93.60
1878;DHT22;939;51.426;6.972;2023-09-30T12:06:21;20.20;95.30
1878;DHT22;939;51.426;6.972;2023-09-30T12:08:48;20.10;94.00
1878;DHT22;939;51.426;6.972;2023-09-30T12:11:17;20.10;94.70
1878;DHT22;939;51.426;6.972;2023-09-30T12:13:46;20.20;92.80
1878;DHT22;939;51.426;6.972;2023-09-30T12:16:15;20.20;90.80
1878;DHT22;939;51.426;6.972;2023-09-30T12:18:42;20.30;91.40
1878;DHT22;939;51.426;6.972;2023-09-30T12:21:10;20.40;94.50
1878;DHT22;939;51.426;6.972;2023-09-30T12:23:37;20.30;91.40
1878;DHT22;939;51.426;6.972;2023-09-30T12:26:04;20.00;88.90
1878;DHT22;939;51.426;6.972;2023-09-30T12:28:32;20.20;93.40
1878;DHT22;939;51.426;6.972;2023-09-30T12:31:00;20.30;95.20
1878;DHT22;939;51.426;6.972;2023-09-30T12:33:28;20.20;92.30
1878;DHT22;939;51.426;6.972;2023-09-30T12:35:56;20.30;92.10
1878;DHT22;939;51.426;6.972;2023-09-30T12:38:23;20.40;95.30
1878;DHT22;939;51.426;6.972;2023-09-30T12:40:51;20.50;93.50
1878;DHT22;939;51.426;6.972;2023-09-30T12:43:18;20.60;91.60
1878;DHT22;939;51.426;6.972;2023-09-30T12:45:45;20.70;90.40
1878;DHT22;939;51.426;6.972;2023-09-30T12:48:14;20.80;90.50
1878;DHT22;939;51.426;6.972;2023-09-30T12:50:41;20.80;91.80
1878;DHT22;939;51.426;6.972;2023-09-30T12:53:08;20.70;88.00
1878;DHT22;939;51.426;6.972;2023-09-30T12:55:35;20.60;88.70
1878;DHT22;939;51.426;6.972;2023-09-30T12:58:02;20.60;94.30
1878;DHT22;939;51.426;6.972;2023-09-30T13:00:31;20.60;91.00
1878;DHT22;939;51.426;6.972;2023-09-30T13:02:58;20.70;91.40
1878;DHT22;939;51.426;6.972;2023-09-30T13:05:27;20.80;93.00
1878;DHT22;939;51.426;6.972;2023-09-30T13:07:55;20.70;92.10
1878;DHT22;939;51.426;6.972;2023-09-30T13:10:22;20.80;90.80
1878;DHT22;939;51.426;6.972;2023-09-30T13:12:49;20.90;92.50
1878;DHT22;939;51.426;6.972;2023-09-30T13:15:16;20.80;89.90
1878;DHT22;939;51.426;6.972;2023-09-30T13:17:43;20.90;91.30
1878;DHT22;939;51.426;6.972;2023-09-30T13:20:11;20.90;91.40
1878;DHT22;939;51.426;6.972;2023-09-30T13:22:40;20.60;91.60
1878;DHT22;939;51.426;6.972;2023-09-30T13:25:07;20.50;91.00
1878;DHT22;939;51.426;6.972;2023-09-30T13:27:37;20.30;90.80
1878;DHT22;939;51.426;6.972;2023-09-30T13:30:06;20.30;92.80
1878;DHT22;939;51.426;6.972;2023-09-30T13:32:36;20.20;93.70
1878;DHT22;939;51.426;6.972;2023-09-30T13:35:10;20.30;93.00
1878;DHT22;939;51.426;6.972;2023-09-30T13:37:37;20.20;91.60
1878;DHT22;939;51.426;6.972;2023-09-30T13:40:07;20.20;94.80
1878;DHT22;939;51.426;6.972;2023-09-30T13:42:37;20.20;96.40
1878;DHT22;939;51.426;6.972;2023-09-30T13:45:05;20.00;95.20
1878;DHT22;939;51.426;6.972;2023-09-30T13:47:32;20.00;95.90
1878;DHT22;939;51.426;6.972;2023-09-30T13:49:58;20.50;94.00
1878;DHT22;939;51.426;6.972;2023-09-30T13:52:27;20.80;93.80
1878;DHT22;939;51.426;6.972;2023-09-30T13:54:54;21.10;92.60
1878;DHT22;939;51.426;6.972;2023-09-30T13:57:23;21.30;92.50
1878;DHT22;939;51.426;6.972;2023-09-30T13:59:49;21.30;90.80
1878;DHT22;939;51.426;6.972;2023-09-30T14:02:16;21.20;90.80
1878;DHT22;939;51.426;6.972;2023-09-30T14:04:43;21.20;91.60
1878;DHT22;939;51.426;6.972;2023-09-30T14:07:10;21.20;91.70
1878;DHT22;939;51.426;6.972;2023-09-30T14:09:37;21.00;90.50
1878;DHT22;939;51.426;6.972;2023-09-30T14:12:04;21.00;90.30
1878;DHT22;939;51.426;6.972;2023-09-30T14:14:33;21.10;91.60
1878;DHT22;939;51.426;6.972;2023-09-30T14:17:01;20.90;90.20
1878;DHT22;939;51.426;6.972;2023-09-30T14:19:33;20.80;90.70
1878;DHT22;939;51.426;6.972;2023-09-30T14:22:00;20.80;90.40
1878;DHT22;939;51.426;6.972;2023-09-30T14:24:27;20.70;89.80
1878;DHT22;939;51.426;6.972;2023-09-30T14:26:54;20.80;91.40
1878;DHT22;939;51.426;6.972;2023-09-30T14:29:21;20.70;91.00
1878;DHT22;939;51.426;6.972;2023-09-30T14:31:49;20.70;92.60
1878;DHT22;939;51.426;6.972;2023-09-30T14:34:17;20.60;91.40
1878;DHT22;939;51.426;6.972;2023-09-30T14:36:44;20.50;92.70
1878;DHT22;939;51.426;6.972;2023-09-30T14:39:13;20.60;94.10
1878;DHT22;939;51.426;6.972;2023-09-30T14:41:41;20.60;96.70
1878;DHT22;939;51.426;6.972;2023-09-30T14:44:08;20.50;97.80
1878;DHT22;939;51.426;6.972;2023-09-30T14:46:37;20.50;98.20
1878;DHT22;939;51.426;6.972;2023-09-30T14:49:06;20.50;98.00
1878;DHT22;939;51.426;6.972;2023-09-30T14:51:33;20.50;96.90
1878;DHT22;939;51.426;6.972;2023-09-30T14:54:02;20.60;97.10
1878;DHT22;939;51.426;6.972;2023-09-30T14:56:29;20.60;97.90
1878;DHT22;939;51.426;6.972;2023-09-30T14:58:56;20.60;96.50
1878;DHT22;939;51.426;6.972;2023-09-30T15:01:23;20.30;95.70
1878;DHT22;939;51.426;6.972;2023-09-30T15:03:51;20.40;99.00
1878;DHT22;939;51.426;6.972;2023-09-30T15:06:21;20.40;97.80
1878;DHT22;939;51.426;6.972;2023-09-30T15:08:52;20.30;96.30
1878;DHT22;939;51.426;6.972;2023-09-30T15:11:18;20.30;95.80
1878;DHT22;939;51.426;6.972;2023-09-30T15:13:45;20.40;99.90
1878;DHT22;939;51.426;6.972;2023-09-30T15:16:17;20.30;97.60
1878;DHT22;939;51.426;6.972;2023-09-30T15:18:44;20.20;95.20
1878;DHT22;939;51.426;6.972;2023-09-30T15:21:12;20.00;94.70
1878;DHT22;939;51.426;6.972;2023-09-30T15:23:44;20.10;96.50
1878;DHT22;939;51.426;6.972;2023-09-30T15:26:11;20.00;96.90
1878;DHT22;939;51.426;6.972;2023-09-30T15:28:41;20.00;99.20
1878;DHT22;939;51.426;6.972;2023-09-30T15:31:10;20.10;99.90
1878;DHT22;939;51.426;6.972;2023-09-30T15:33:39;20.10;99.90
1878;DHT22;939;51.426;6.972;2023-09-30T15:36:15;20.10;98.90
1878;DHT22;939;51.426;6.972;2023-09-30T15:38:44;20.00;99.90
1878;DHT22;939;51.426;6.972;2023-09-30T15:41:12;19.90;99.90
1878;DHT22;939;51.426;6.972;2023-09-30T15:43:40;20.00;99.90
1878;DHT22;939;51.426;6.972;2023-09-30T15:46:08;20.00;99.90
1878;DHT22;939;51.426;6.972;2023-09-30T15:48:36;20.00;99.90
1878;DHT22;939;51.426;6.972;2023-09-30T15:51:03;20.00;99.90
1878;DHT22;939;51.426;6.972;2023-09-30T15:53:31;19.90;99.90
1878;DHT22;939;51.426;6.972;2023-09-30T15:56:00;19.90;99.90
1878;DHT22;939;51.426;6.972;2023-09-30T15:58:27;20.00;99.90
1878;DHT22;939;51.426;6.972;2023-09-30T16:00:55;19.90;99.90
1878;DHT22;939;51.426;6.972;2023-09-30T16:03:22;19.80;99.90
1878;DHT22;939;51.426;6.972;2023-09-30T16:05:50;19.90;99.90
1878;DHT22;939;51.426;6.972;2023-09-30T16:08:17;19.90;99.90
1878;DHT22;939;51.426;6.972;2023-09-30T16:10:44;19.80;99.90
1878;DHT22;939;51.426;6.972;2023-09-30T16:13:13;19.80;99.90
1878;DHT22;939;51.426;6.972;2023-09-30T16:15:41;19.80;99.90
1878;DHT22;939;51.426;6.972;2023-09-30T16:18:09;19.50;99.90
1878;DHT22;939;51.426;6.972;2023-09-30T16:20:36;19.50;99.90
1878;DHT22;939;51.426;6.972;2023-09-30T16:23:03;19.50;99.90
1878;DHT22;939;51.426;6.972;2023-09-30T16:25:32;19.40;99.90
1878;DHT22;939;51.426;6.972;2023-09-30T16:28:00;19.40;99.90
1878;DHT22;939;51.426;6.972;2023-09-30T16:30:32;19.40;99.90
1878;DHT22;939;51.426;6.972;2023-09-30T16:32:59;19.40;99.90
1878;DHT22;939;51.426;6.972;2023-09-30T16:35:26;19.40;99.90
1878;DHT22;939;51.426;6.972;2023-09-30T16:37:52;19.20;99.90
1878;DHT22;939;51.426;6.972;2023-09-30T16:40:19;19.10;99.90
1878;DHT22;939;51.426;6.972;2023-09-30T16:42:46;19.10;99.90
1878;DHT22;939;51.426;6.972;2023-09-30T16:45:13;19.10;99.90
1878;DHT22;939;51.426;6.972;2023-09-30T16:47:42;19.00;99.90
1878;DHT22;939;51.426;6.972;2023-09-30T16:50:09;18.90;99.90
1878;DHT22;939;51.426;6.972;2023-09-30T16:52:36;18.90;99.90
1878;DHT22;939;51.426;6.972;2023-09-30T16:55:04;18.80;99.90
1878;DHT22;939;51.426;6.972;2023-09-30T16:57:32;18.70;99.90
1878;DHT22;939;51.426;6.972;2023-09-30T16:59:59;18.60;99.90
1878;DHT22;939;51.426;6.972;2023-09-30T17:02:32;18.50;99.90
1878;DHT22;939;51.426;6.972;2023-09-30T17:05:00;18.40;99.90
1878;DHT22;939;51.426;6.972;2023-09-30T17:07:28;18.30;99.90
1878;DHT22;939;51.426;6.972;2023-09-30T17:09:55;18.20;99.90
1878;DHT22;939;51.426;6.972;2023-09-30T17:12:22;18.20;99.90
1878;DHT22;939;51.426;6.972;2023-09-30T17:14:50;18.10;99.90
1878;DHT22;939;51.426;6.972;2023-09-30T17:17:17;18.00;99.90
1878;DHT22;939;51.426;6.972;2023-09-30T17:19:44;17.90;99.90
1878;DHT22;939;51.426;6.972;2023-09-30T17:22:12;17.90;99.90
1878;DHT22;939;51.426;6.972;2023-09-30T17:24:40;17.90;99.90
1878;DHT22;939;51.426;6.972;2023-09-30T17:27:08;17.90;99.90
1878;DHT22;939;51.426;6.972;2023-09-30T17:29:35;17.80;99.90
1878;DHT22;939;51.426;6.972;2023-09-30T17:32:04;17.70;99.90
1878;DHT22;939;51.426;6.972;2023-09-30T17:34:32;17.60;99.90
1878;DHT22;939;51.426;6.972;2023-09-30T17:37:00;17.50;99.90
1878;DHT22;939;51.426;6.972;2023-09-30T17:39:30;17.40;99.90
1878;DHT22;939;51.426;6.972;2023-09-30T17:41:57;17.40;99.90
1878;DHT22;939;51.426;6.972;2023-09-30T17:44:24;17.20;99.90
1878;DHT22;939;51.426;6.972;2023-09-30T17:46:51;17.20;99.90
1878;DHT22;939;51.426;6.972;2023-09-30T17:49:18;17.20;99.90
1878;DHT22;939;51.426;6.972;2023-09-30T17:51:45;17.20;99.90
1878;DHT22;939;51.426;6.972;2023-09-30T17:54:14;17.10;99.90
1878;DHT22;939;51.426;6.972;2023-09-30T17:56:43;17.10;99.90
1878;DHT22;939;51.426;6.972;2023-09-30T17:59:10;17.10;99.90
1878;DHT22;939;51.426;6.972;2023-09-30T18:01:37;17.10;99.90
1878;DHT22;939;51.426;6.972;2023-09-30T18:04:04;17.10;99.90
1878;DHT22;939;51.426;6.972;2023-09-30T18:06:32;17.10;99.90
1878;DHT22;939;51.426;6.972;2023-09-30T18:08:59;17.00;99.90
1878;DHT22;939;51.426;6.972;2023-09-30T18:11:26;16.90;99.90
1878;DHT22;939;51.426;6.972;2023-09-30T18:13:55;16.50;99.90
1878;DHT22;939;51.426;6.972;2023-09-30T18:16:25;16.20;99.90
1878;DHT22;939;51.426;6.972;2023-09-30T18:18:51;16.40;99.90
1878;DHT22;939;51.426;6.972;2023-09-30T18:21:18;16.50;99.90
1878;DHT22;939;51.426;6.972;2023-09-30T18:23:45;16.60;99.90
1878;DHT22;939;51.426;6.972;2023-09-30T18:26:12;16.60;99.90
1878;DHT22;939;51.426;6.972;2023-09-30T18:28:39;16.60;99.90
1878;DHT22;939;51.426;6.972;2023-09-30T18:31:07;16.60;99.90
1878;DHT22;939;51.426;6.972;2023-09-30T18:33:34;16.50;99.90
1878;DHT22;939;51.426;6.972;2023-09-30T18:36:01;16.50;99.90
1878;DHT22;939;51.426;6.972;2023-09-30T18:38:28;16.40;99.90
1878;DHT22;939;51.426;6.972;2023-09-30T18:40:58;16.20;99.90
1878;DHT22;939;51.426;6.972;2023-09-30T18:43:25;16.30;99.90
1878;DHT22;939;51.426;6.972;2023-09-30T18:45:54;16.30;99.90
1878;DHT22;939;51.426;6.972;2023-09-30T18:48:23;16.30;99.90
1878;DHT22;939;51.426;6.972;2023-09-30T18:50:51;16.40;99.90
1878;DHT22;939;51.426;6.972;2023-09-30T18:53:18;16.30;99.90
1878;DHT22;939;51.426;6.972;2023-09-30T18:55:46;16.30;99.90
1878;DHT22;939;51.426;6.972;2023-09-30T18:58:14;16.30;99.90
1878;DHT22;939;51.426;6.972;2023-09-30T19:00:42;16.20;99.90
1878;DHT22;939;51.426;6.972;2023-09-30T19:03:10;16.20;99.90
1878;DHT22;939;51.426;6.972;2023-09-30T19:05:39;16.20;99.90
1878;DHT22;939;51.426;6.972;2023-09-30T19:08:07;16.10;99.90
1878;DHT22;939;51.426;6.972;2023-09-30T19:10:36;16.10;99.90
1878;DHT22;939;51.426;6.972;2023-09-30T19:13:03;16.10;99.90
1878;DHT22;939;51.426;6.972;2023-09-30T19:15:31;16.00;99.90
1878;DHT22;939;51.426;6.972;2023-09-30T19:18:15;16.00;99.90
1878;DHT22;939;51.426;6.972;2023-09-30T19:20:52;16.00;99.90
1878;DHT22;939;51.426;6.972;2023-09-30T19:23:19;16.00;99.90
1878;DHT22;939;51.426;6.972;2023-09-30T19:25:46;15.90;99.90
1878;DHT22;939;51.426;6.972;2023-09-30T19:28:13;15.90;99.90
1878;DHT22;939;51.426;6.972;2023-09-30T19:30:43;15.90;99.90
1878;DHT22;939;51.426;6.972;2023-09-30T19:33:10;16.10;99.90
1878;DHT22;939;51.426;6.972;2023-09-30T19:35:38;16.10;99.90
1878;DHT22;939;51.426;6.972;2023-09-30T19:38:07;16.10;99.90
1878;DHT22;939;51.426;6.972;2023-09-30T19:40:34;16.10;99.90
1878;DHT22;939;51.426;6.972;2023-09-30T19:43:02;16.10;99.90
1878;DHT22;939;51.426;6.972;2023-09-30T19:45:29;16.10;99.90
1878;DHT22;939;51.426;6.972;2023-09-30T19:47:56;16.10;99.90
1878;DHT22;939;51.426;6.972;2023-09-30T19:50:23;16.10;99.90
1878;DHT22;939;51.426;6.972;2023-09-30T19:52:50;16.10;99.90
1878;DHT22;939;51.426;6.972;2023-09-30T19:55:18;16.10;99.90
1878;DHT22;939;51.426;6.972;2023-09-30T19:57:45;16.00;99.90
1878;DHT22;939;51.426;6.972;2023-09-30T20:00:12;16.00;99.90
1878;DHT22;939;51.426;6.972;2023-09-30T20:02:43;16.10;99.90
1878;DHT22;939;51.426;6.972;2023-09-30T20:05:11;16.10;99.90
1878;DHT22;939;51.426;6.972;2023-09-30T20:07:38;16.10;99.90
1878;DHT22;939;51.426;6.972;2023-09-30T20:10:07;16.10;99.90
1878;DHT22;939;51.426;6.972;2023-09-30T20:12:35;16.10;99.90
1878;DHT22;939;51.426;6.972;2023-09-30T20:15:02;16.00;99.90
1878;DHT22;939;51.426;6.972;2023-09-30T20:17:29;16.00;99.90
1878;DHT22;939;51.426;6.972;2023-09-30T20:19:56;16.10;99.90
1878;DHT22;939;51.426;6.972;2023-09-30T20:22:23;16.10;99.90
1878;DHT22;939;51.426;6.972;2023-09-30T20:24:50;16.10;99.90
1878;DHT22;939;51.426;6.972;2023-09-30T20:27:21;16.20;99.90
1878;DHT22;939;51.426;6.972;2023-09-30T20:29:49;16.20;99.90
1878;DHT22;939;51.426;6.972;2023-09-30T20:32:16;16.20;99.90
1878;DHT22;939;51.426;6.972;2023-09-30T20:34:43;16.20;99.90
1878;DHT22;939;51.426;6.972;2023-09-30T20:37:11;16.30;99.90
1878;DHT22;939;51.426;6.972;2023-09-30T20:39:38;16.20;99.90
1878;DHT22;939;51.426;6.972;2023-09-30T20:42:06;16.20;99.90
1878;DHT22;939;51.426;6.972;2023-09-30T20:44:33;16.20;99.90
1878;DHT22;939;51.426;6.972;2023-09-30T20:47:01;16.10;99.90
1878;DHT22;939;51.426;6.972;2023-09-30T20:49:28;16.10;99.90
1878;DHT22;939;51.426;6.972;2023-09-30T20:52:01;16.10;99.90
1878;DHT22;939;51.426;6.972;2023-09-30T20:54:28;16.10;99.90
1878;DHT22;939;51.426;6.972;2023-09-30T20:56:56;16.00;99.90
1878;DHT22;939;51.426;6.972;2023-09-30T20:59:23;16.00;99.90
1878;DHT22;939;51.426;6.972;2023-09-30T21:01:50;16.10;99.90
1878;DHT22;939;51.426;6.972;2023-09-30T21:04:22;16.00;99.90
1878;DHT22;939;51.426;6.972;2023-09-30T21:06:49;15.90;99.90
1878;DHT22;939;51.426;6.972;2023-09-30T21:09:16;15.90;99.90
1878;DHT22;939;51.426;6.972;2023-09-30T21:11:43;15.90;99.90
1878;DHT22;939;51.426;6.972;2023-09-30T21:14:11;15.90;99.90
1878;DHT22;939;51.426;6.972;2023-09-30T21:16:39;15.90;99.90
1878;DHT22;939;51.426;6.972;2023-09-30T21:19:07;15.90;99.90
1878;DHT22;939;51.426;6.972;2023-09-30T21:21:36;15.90;99.90
1878;DHT22;939;51.426;6.972;2023-09-30T21:24:05;15.90;99.90
1878;DHT22;939;51.426;6.972;2023-09-30T21:26:32;15.90;99.90
1878;DHT22;939;51.426;6.972;2023-09-30T21:28:59;15.80;99.90
1878;DHT22;939;51.426;6.972;2023-09-30T21:31:26;15.90;99.90
1878;DHT22;939;51.426;6.972;2023-09-30T21:33:54;15.90;99.90
1878;DHT22;939;51.426;6.972;2023-09-30T21:36:21;15.90;99.90
1878;DHT22;939;51.426;6.972;2023-09-30T21:38:50;15.90;99.90
1878;DHT22;939;51.426;6.972;2023-09-30T21:41:18;15.90;99.90
1878;DHT22;939;51.426;6.972;2023-09-30T21:43:45;15.80;99.90
1878;DHT22;939;51.426;6.972;2023-09-30T21:46:12;15.90;99.90
1878;DHT22;939;51.426;6.972;2023-09-30T21:48:40;15.80;99.90
1878;DHT22;939;51.426;6.972;2023-09-30T21:51:07;15.80;99.90
1878;DHT22;939;51.426;6.972;2023-09-30T21:53:36;15.70;99.90
1878;DHT22;939;51.426;6.972;2023-09-30T21:56:04;15.70;99.90
1878;DHT22;939;51.426;6.972;2023-09-30T21:58:36;15.70;99.90
1878;DHT22;939;51.426;6.972;2023-09-30T22:01:03;15.60;99.90
1878;DHT22;939;51.426;6.972;2023-09-30T22:03:31;15.60;99.90
1878;DHT22;939;51.426;6.972;2023-09-30T22:05:58;15.60;99.90
1878;DHT22;939;51.426;6.972;2023-09-30T22:08:26;15.60;99.90
1878;DHT22;939;51.426;6.972;2023-09-30T22:10:54;15.60;99.90
1878;DHT22;939;51.426;6.972;2023-09-30T22:13:24;15.70;99.90
1878;DHT22;939;51.426;6.972;2023-09-30T22:15:51;15.50;99.90
1878;DHT22;939;51.426;6.972;2023-09-30T22:18:28;15.60;99.90
1878;DHT22;939;51.426;6.972;2023-09-30T22:20:55;15.60;99.90
1878;DHT22;939;51.426;6.972;2023-09-30T22:23:24;15.50;99.90
1878;DHT22;939;51.426;6.972;2023-09-30T22:25:51;15.60;99.90
1878;DHT22;939;51.426;6.972;2023-09-30T22:28:23;15.60;99.90
1878;DHT22;939;51.426;6.972;2023-09-30T22:30:50;15.60;99.90
1878;DHT22;939;51.426;6.972;2023-09-30T22:33:19;15.40;99.90
1878;DHT22;939;51.426;6.972;2023-09-30T22:35:47;15.50;99.90
1878;DHT22;939;51.426;6.972;2023-09-30T22:38:14;15.40;99.90
1878;DHT22;939;51.426;6.972;2023-09-30T22:40:41;15.50;99.90
1878;DHT22;939;51.426;6.972;2023-09-30T22:43:09;15.50;99.90
1878;DHT22;939;51.426;6.972;2023-09-30T22:45:38;15.40;99.90
1878;DHT22;939;51.426;6.972;2023-09-30T22:48:08;15.40;99.90
1878;DHT22;939;51.426;6.972;2023-09-30T22:50:35;15.50;99.90
1878;DHT22;939;51.426;6.972;2023-09-30T22:53:03;15.40;99.90
1878;DHT22;939;51.426;6.972;2023-09-30T22:55:30;15.50;99.90
1878;DHT22;939;51.426;6.972;2023-09-30T22:57:58;15.50;99.90
1878;DHT22;939;51.426;6.972;2023-09-30T23:00:39;15.40;99.90
1878;DHT22;939;51.426;6.972;2023-09-30T23:03:07;15.40;99.90
1878;DHT22;939;51.426;6.972;2023-09-30T23:05:37;15.50;99.90
1878;DHT22;939;51.426;6.972;2023-09-30T23:08:05;15.40;99.90
1878;DHT22;939;51.426;6.972;2023-09-30T23:10:31;15.40;99.90
1878;DHT22;939;51.426;6.972;2023-09-30T23:12:59;15.50;99.90
1878;DHT22;939;51.426;6.972;2023-09-30T23:15:26;15.50;99.90
1878;DHT22;939;51.426;6.972;2023-09-30T23:17:55;15.50;99.90
1878;DHT22;939;51.426;6.972;2023-09-30T23:20:22;15.50;99.90
1878;DHT22;939;51.426;6.972;2023-09-30T23:22:52;15.50;99.90
1878;DHT22;939;51.426;6.972;2023-09-30T23:25:21;15.60;99.90
1878;DHT22;939;51.426;6.972;2023-09-30T23:27:52;15.60;99.90
1878;DHT22;939;51.426;6.972;2023-09-30T23:30:19;15.50;99.90
1878;DHT22;939;51.426;6.972;2023-09-30T23:32:48;15.50;99.90
1878;DHT22;939;51.426;6.972;2023-09-30T23:35:18;15.50;99.90
1878;DHT22;939;51.426;6.972;2023-09-30T23:37:49;15.60;99.90
1878;DHT22;939;51.426;6.972;2023-09-30T23:40:16;15.50;99.90
1878;DHT22;939;51.426;6.972;2023-09-30T23:42:46;15.60;99.90
1878;DHT22;939;51.426;6.972;2023-09-30T23:45:14;15.60;99.90
1878;DHT22;939;51.426;6.972;2023-09-30T23:47:44;15.70;99.90
1878;DHT22;939;51.426;6.972;2023-09-30T23:50:12;15.70;99.90
1878;DHT22;939;51.426;6.972;2023-09-30T23:52:44;15.70;99.90
1878;DHT22;939;51.426;6.972;2023-09-30T23:55:11;15.60;99.90
1878;DHT22;939;51.426;6.972;2023-09-30T23:57:40;15.70;99.90
